Time;durP1;ratioP1;P1;durP2;ratioP2;P2;SDS_P1;SDS_P2;PMS_P1;PMS_P2;Temp;Humidity;BMP_temperature;BMP_pressure;BME280_temperature;BME280_humidity;BME280_pressure;Samples;Min_cycle;Max_cycle;Signal;HPM_P1;HPM_P2
2021/07/05 00:00:15;;;;;;;0.40;0.30;;;14.50;99.90;;;;;;5052428;28;20468;-82
2021/07/05 00:02:42;;;;;;;0.40;0.40;;;14.50;99.90;;;;;;5057252;28;20426;-81
2021/07/05 00:05:11;;;;;;;0.50;0.30;;;14.50;99.90;;;;;;5059209;28;20448;-81
2021/07/05 00:07:38;;;;;;;0.60;0.57;;;14.50;99.90;;;;;;5058558;28;20433;-82
2021/07/05 00:10:08;;;;;;;0.50;0.30;;;14.50;99.90;;;;;;5058823;28;20460;-81
2021/07/05 00:12:35;;;;;;;0.40;0.30;;;14.60;99.90;;;;;;5059701;28;20433;-80
2021/07/05 00:15:01;;;;;;;0.40;0.30;;;14.60;99.90;;;;;;5059095;28;20437;-83
2021/07/05 00:17:28;;;;;;;0.40;0.30;;;14.60;99.90;;;;;;5057946;28;20480;-82
2021/07/05 00:19:57;;;;;;;0.50;0.50;;;14.60;99.90;;;;;;5058144;28;20866;-82
2021/07/05 00:22:24;;;;;;;0.40;0.30;;;14.60;99.90;;;;;;5058774;28;20440;-80
2021/07/05 00:24:51;;;;;;;0.40;0.30;;;14.60;99.90;;;;;;5058598;28;20548;-81
2021/07/05 00:27:19;;;;;;;0.40;0.30;;;14.60;99.90;;;;;;5058379;28;20849;-82
2021/07/05 00:29:46;;;;;;;0.40;0.30;;;14.70;99.90;;;;;;5057836;28;20436;-82
2021/07/05 00:32:13;;;;;;;0.40;0.33;;;14.60;99.90;;;;;;5055614;28;20878;-80
2021/07/05 00:34:39;;;;;;;0.40;0.40;;;14.70;99.90;;;;;;5058030;28;20444;-80
2021/07/05 00:37:06;;;;;;;0.47;0.30;;;14.70;99.90;;;;;;5057968;28;20464;-82
2021/07/05 00:39:33;;;;;;;0.40;0.30;;;14.70;99.90;;;;;;5058627;28;20429;-82
2021/07/05 00:42:00;;;;;;;0.40;0.30;;;14.70;99.90;;;;;;5058474;28;20432;-81
2021/07/05 00:44:28;;;;;;;0.40;0.30;;;14.70;99.90;;;;;;5058881;28;20440;-82
2021/07/05 00:46:54;;;;;;;0.40;0.30;;;14.70;99.90;;;;;;5058205;28;20908;-81
2021/07/05 00:49:21;;;;;;;0.40;0.30;;;14.60;99.90;;;;;;5058844;28;20433;-82
2021/07/05 00:51:48;;;;;;;0.40;0.30;;;14.60;99.90;;;;;;5059022;28;20481;-82
2021/07/05 00:54:15;;;;;;;0.40;0.30;;;14.70;99.90;;;;;;5058814;28;20429;-82
2021/07/05 00:56:42;;;;;;;0.40;0.30;;;14.70;99.90;;;;;;5058212;28;20433;-82
2021/07/05 00:59:09;;;;;;;0.50;0.30;;;14.70;99.90;;;;;;5058516;28;20469;-82
2021/07/05 01:01:37;;;;;;;0.40;0.30;;;14.70;99.90;;;;;;5055350;28;20974;-82
2021/07/05 01:04:05;;;;;;;0.40;0.30;;;14.70;99.90;;;;;;5058257;28;20919;-82
2021/07/05 01:06:31;;;;;;;0.40;0.30;;;14.60;99.90;;;;;;5057866;28;20429;-82
2021/07/05 01:08:58;;;;;;;0.40;0.30;;;14.70;99.90;;;;;;5057567;28;20453;-80
2021/07/05 01:11:25;;;;;;;0.40;0.30;;;14.70;99.90;;;;;;5057824;28;20464;-81
2021/07/05 01:13:52;;;;;;;0.40;0.30;;;14.70;99.90;;;;;;5057464;28;20798;-82
2021/07/05 01:16:19;;;;;;;0.40;0.30;;;14.80;99.90;;;;;;5057074;28;20540;-82
2021/07/05 01:18:47;;;;;;;0.40;0.30;;;14.80;99.90;;;;;;5057426;28;20477;-82
2021/07/05 01:21:15;;;;;;;0.40;0.30;;;14.80;99.90;;;;;;5057081;28;20807;-82
2021/07/05 01:23:42;;;;;;;0.40;0.30;;;14.80;99.90;;;;;;5057654;28;20455;-82
2021/07/05 01:26:09;;;;;;;0.40;0.30;;;14.90;99.90;;;;;;5057895;28;20433;-82
2021/07/05 01:28:36;;;;;;;0.40;0.30;;;14.80;99.90;;;;;;5057709;28;20438;-82
2021/07/05 01:31:03;;;;;;;0.50;0.50;;;14.80;99.90;;;;;;5055165;28;20461;-83
2021/07/05 01:33:29;;;;;;;0.40;0.30;;;14.90;99.90;;;;;;5041568;28;20429;-83
2021/07/05 01:35:56;;;;;;;1.07;1.07;;;14.80;99.90;;;;;;5057377;28;20448;-83
2021/07/05 01:38:25;;;;;;;0.40;0.40;;;14.90;99.90;;;;;;5057283;28;20481;-83
2021/07/05 01:40:57;;;;;;;0.40;0.30;;;14.90;99.90;;;;;;5058071;28;20461;-81
2021/07/05 01:43:24;;;;;;;0.40;0.30;;;14.90;99.90;;;;;;5057882;28;20452;-82
2021/07/05 01:45:51;;;;;;;0.40;0.30;;;14.90;99.90;;;;;;5056946;28;20468;-83
2021/07/05 01:48:18;;;;;;;0.40;0.30;;;14.90;99.90;;;;;;5056751;28;20444;-81
2021/07/05 01:50:45;;;;;;;0.40;0.30;;;14.80;99.90;;;;;;5057567;28;20467;-82
2021/07/05 01:53:12;;;;;;;0.40;0.33;;;14.90;99.90;;;;;;5057647;28;20467;-82
2021/07/05 01:55:41;;;;;;;0.40;0.30;;;14.80;99.90;;;;;;5058085;28;20449;-80
2021/07/05 01:58:09;;;;;;;0.40;0.30;;;14.90;99.90;;;;;;5057339;28;20579;-82
2021/07/05 02:00:38;;;;;;;2.40;2.30;;;14.90;99.90;;;;;;5055418;28;20457;-80
2021/07/05 02:03:05;;;;;;;0.40;0.30;;;14.90;99.90;;;;;;5061906;28;20424;-82
2021/07/05 02:05:33;;;;;;;2.30;2.20;;;14.90;99.90;;;;;;5060564;28;20441;-82
2021/07/05 02:08:00;;;;;;;0.83;0.83;;;14.90;99.90;;;;;;5058252;28;20874;-81
2021/07/05 02:10:29;;;;;;;0.40;0.40;;;14.90;99.90;;;;;;5057400;28;20464;-82
2021/07/05 02:12:58;;;;;;;0.40;0.30;;;14.90;99.90;;;;;;5056388;28;20441;-82
2021/07/05 02:15:26;;;;;;;0.40;0.30;;;14.90;99.90;;;;;;5057492;28;20443;-82
2021/07/05 02:17:53;;;;;;;0.53;0.53;;;14.90;99.90;;;;;;5055987;28;20473;-82
2021/07/05 02:20:22;;;;;;;0.40;0.30;;;14.90;99.90;;;;;;5056116;28;20540;-82
2021/07/05 02:22:50;;;;;;;0.40;0.30;;;15.00;99.90;;;;;;5056702;28;20448;-82
2021/07/05 02:25:18;;;;;;;0.40;0.30;;;14.90;99.90;;;;;;5056740;28;20532;-81
2021/07/05 02:27:45;;;;;;;1.30;1.23;;;14.90;99.90;;;;;;5056428;28;20433;-82
2021/07/05 02:30:17;;;;;;;0.40;0.30;;;15.00;99.90;;;;;;5054077;28;20484;-82
2021/07/05 02:32:45;;;;;;;0.40;0.30;;;15.00;99.90;;;;;;5055331;28;20440;-82
2021/07/05 02:35:14;;;;;;;0.40;0.30;;;15.00;99.90;;;;;;5056223;28;20437;-80
2021/07/05 02:37:43;;;;;;;0.40;0.30;;;15.00;99.90;;;;;;5056463;28;20820;-78
2021/07/05 02:40:12;;;;;;;0.40;0.30;;;15.00;99.90;;;;;;5056242;28;20461;-81
2021/07/05 02:42:40;;;;;;;0.40;0.40;;;15.00;99.90;;;;;;5056391;28;20457;-82
2021/07/05 02:45:09;;;;;;;0.40;0.30;;;15.00;99.90;;;;;;5056484;28;20437;-82
2021/07/05 02:47:37;;;;;;;0.40;0.30;;;15.00;99.90;;;;;;5054660;28;20441;-83
2021/07/05 02:50:06;;;;;;;0.40;0.30;;;15.00;99.90;;;;;;5056168;28;20465;-82
2021/07/05 02:52:33;;;;;;;0.40;0.30;;;15.00;99.90;;;;;;5056378;28;20449;-79
2021/07/05 02:54:59;;;;;;;0.40;0.30;;;15.00;99.90;;;;;;5056434;28;20837;-82
2021/07/05 02:57:32;;;;;;;0.40;0.30;;;15.00;99.90;;;;;;5055574;28;20437;-81
2021/07/05 03:00:01;;;;;;;0.50;0.30;;;15.10;99.90;;;;;;5054237;28;20464;-82
2021/07/05 03:02:30;;;;;;;0.40;0.30;;;15.00;99.90;;;;;;5055941;28;20444;-82
2021/07/05 03:04:59;;;;;;;0.40;0.30;;;15.00;99.90;;;;;;5056387;28;20503;-82
2021/07/05 03:07:26;;;;;;;0.40;0.30;;;15.10;99.90;;;;;;5055657;28;20437;-82
2021/07/05 03:09:53;;;;;;;0.70;0.50;;;15.10;99.90;;;;;;5056442;28;20973;-82
2021/07/05 03:12:20;;;;;;;0.40;0.30;;;15.10;99.90;;;;;;5056351;28;20433;-81
2021/07/05 03:14:47;;;;;;;0.50;0.50;;;15.20;99.90;;;;;;5055881;28;20444;-82
2021/07/05 03:17:14;;;;;;;0.40;0.30;;;15.30;99.90;;;;;;5055424;28;20445;-81
2021/07/05 03:19:41;;;;;;;0.40;0.30;;;15.30;99.90;;;;;;5055364;28;20476;-80
2021/07/05 03:22:09;;;;;;;1.93;0.70;;;15.30;99.90;;;;;;5055880;28;20436;-82
2021/07/05 03:24:36;;;;;;;0.40;0.30;;;15.40;99.90;;;;;;5055643;28;20436;-79
2021/07/05 03:27:04;;;;;;;0.40;0.37;;;15.40;99.90;;;;;;5055200;28;20463;-82
2021/07/05 03:29:31;;;;;;;0.40;0.30;;;15.40;99.90;;;;;;5055627;28;20447;-79
2021/07/05 03:31:58;;;;;;;1.20;1.13;;;15.50;99.90;;;;;;5051219;22;20492;-80
2021/07/05 03:34:25;;;;;;;0.40;0.30;;;15.60;99.90;;;;;;5015369;28;20982;-80
2021/07/05 03:36:52;;;;;;;1.47;0.40;;;15.60;99.90;;;;;;5026162;28;20434;-81
2021/07/05 03:39:20;;;;;;;0.50;0.50;;;15.70;99.90;;;;;;5028810;28;20474;-80
2021/07/05 03:41:47;;;;;;;0.50;0.47;;;15.80;99.90;;;;;;5031040;28;20455;-81
2021/07/05 03:44:13;;;;;;;0.40;0.30;;;15.80;99.90;;;;;;5030198;28;20434;-81
2021/07/05 03:46:40;;;;;;;2.10;2.00;;;15.90;99.90;;;;;;5026594;28;20450;-80
2021/07/05 03:49:07;;;;;;;0.40;0.30;;;16.00;99.90;;;;;;5029719;28;21081;-79
2021/07/05 03:51:34;;;;;;;0.40;0.30;;;16.00;99.90;;;;;;5030302;28;20475;-80
2021/07/05 03:54:01;;;;;;;0.40;0.30;;;16.10;99.90;;;;;;5029630;28;20462;-80
2021/07/05 03:56:29;;;;;;;0.67;0.53;;;16.20;99.90;;;;;;5029195;28;20451;-79
2021/07/05 03:58:56;;;;;;;0.40;0.40;;;16.30;99.90;;;;;;5028862;28;20471;-81
2021/07/05 04:01:22;;;;;;;0.53;0.40;;;16.40;99.90;;;;;;5031306;28;20460;-80
2021/07/05 04:03:49;;;;;;;0.40;0.30;;;16.40;99.90;;;;;;5028894;28;20439;-79
2021/07/05 04:06:17;;;;;;;0.50;0.30;;;16.40;99.90;;;;;;5028223;28;20430;-81
2021/07/05 04:08:44;;;;;;;1.23;1.23;;;16.50;99.90;;;;;;5029559;28;20435;-80
2021/07/05 04:11:10;;;;;;;0.83;0.83;;;16.50;99.90;;;;;;5029217;28;20527;-80
2021/07/05 04:13:39;;;;;;;0.40;0.30;;;16.60;99.90;;;;;;5028874;28;20439;-80
2021/07/05 04:16:06;;;;;;;0.40;0.30;;;16.50;99.90;;;;;;5029999;28;20439;-80
2021/07/05 04:18:33;;;;;;;0.40;0.30;;;16.50;99.90;;;;;;5029361;28;20534;-80
2021/07/05 04:20:59;;;;;;;0.40;0.30;;;16.50;99.90;;;;;;5028477;28;20448;-79
2021/07/05 04:23:26;;;;;;;1.00;0.63;;;16.50;99.90;;;;;;5028956;28;20845;-81
2021/07/05 04:25:54;;;;;;;1.47;1.37;;;16.50;99.90;;;;;;5028484;28;20453;-80
2021/07/05 04:28:21;;;;;;;0.83;0.83;;;16.50;99.90;;;;;;5028323;28;20435;-80
2021/07/05 04:30:50;;;;;;;1.47;0.60;;;16.40;99.90;;;;;;5028011;28;20453;-80
2021/07/05 04:33:16;;;;;;;0.50;0.40;;;16.40;99.90;;;;;;5034210;28;20471;-79
2021/07/05 04:35:43;;;;;;;0.43;0.37;;;16.30;99.90;;;;;;5022588;28;20433;-81
2021/07/05 04:38:10;;;;;;;1.03;0.93;;;16.30;99.90;;;;;;5027273;28;20454;-79
2021/07/05 04:40:39;;;;;;;0.97;0.97;;;16.30;99.90;;;;;;5023918;28;20515;-80
2021/07/05 04:43:06;;;;;;;3.30;2.97;;;16.10;99.90;;;;;;5023112;28;20459;-80
2021/07/05 04:45:33;;;;;;;0.97;0.87;;;16.10;99.90;;;;;;5025418;28;20487;-81
2021/07/05 04:48:04;;;;;;;0.73;0.73;;;15.90;99.90;;;;;;5023795;28;20458;-79
2021/07/05 04:50:31;;;;;;;0.50;0.30;;;15.50;99.90;;;;;;5025971;28;20419;-80
2021/07/05 04:52:58;;;;;;;0.50;0.40;;;15.30;99.90;;;;;;5026464;28;20458;-77
2021/07/05 04:55:25;;;;;;;0.50;0.30;;;15.20;99.90;;;;;;5024851;28;20447;-78
2021/07/05 04:57:54;;;;;;;1.47;0.50;;;15.00;99.90;;;;;;5024769;28;20436;-78
2021/07/05 05:00:24;;;;;;;0.40;0.30;;;14.90;99.90;;;;;;5025975;28;20472;-79
2021/07/05 05:02:51;;;;;;;0.50;0.40;;;14.80;99.90;;;;;;5034020;28;20554;-81
2021/07/05 05:05:19;;;;;;;0.47;0.37;;;14.70;99.90;;;;;;5019032;28;20437;-80
2021/07/05 05:07:46;;;;;;;0.50;0.40;;;14.60;99.90;;;;;;5026104;28;20816;-80
2021/07/05 05:10:14;;;;;;;0.50;0.30;;;14.50;99.90;;;;;;5025406;28;20837;-78
2021/07/05 05:12:41;;;;;;;0.60;0.60;;;14.40;99.90;;;;;;5025681;28;20469;-79
2021/07/05 05:15:11;;;;;;;0.50;0.50;;;14.30;99.90;;;;;;5025527;28;20439;-81
2021/07/05 05:17:38;;;;;;;0.60;0.60;;;14.20;99.90;;;;;;5026397;28;20443;-78
2021/07/05 05:20:08;;;;;;;0.50;0.40;;;14.10;99.90;;;;;;5025638;28;20487;-80
2021/07/05 05:22:36;;;;;;;0.40;0.40;;;14.10;99.90;;;;;;5025386;28;20821;-80
2021/07/05 05:25:05;;;;;;;0.50;0.30;;;14.00;99.90;;;;;;5025058;28;20443;-79
2021/07/05 05:27:32;;;;;;;0.40;0.30;;;14.00;99.90;;;;;;5023548;28;20805;-79
2021/07/05 05:29:58;;;;;;;0.50;0.40;;;13.90;99.90;;;;;;5024936;28;20440;-80
2021/07/05 05:32:25;;;;;;;0.40;0.30;;;13.90;99.90;;;;;;5031297;28;20459;-80
2021/07/05 05:34:52;;;;;;;0.70;0.70;;;13.80;99.90;;;;;;5015432;28;20485;-79
2021/07/05 05:37:19;;;;;;;0.87;0.87;;;13.80;99.90;;;;;;5022731;28;20447;-80
2021/07/05 05:39:47;;;;;;;0.40;0.40;;;13.90;99.90;;;;;;5023836;28;20829;-80
2021/07/05 05:42:13;;;;;;;0.73;0.73;;;13.80;99.90;;;;;;5023732;28;20475;-80
2021/07/05 05:44:44;;;;;;;4.17;1.17;;;13.90;99.90;;;;;;5024020;28;20449;-79
2021/07/05 05:47:11;;;;;;;17.83;4.20;;;13.80;99.90;;;;;;5022274;28;20493;-78
2021/07/05 05:49:38;;;;;;;0.50;0.50;;;13.70;99.90;;;;;;5021514;28;20446;-79
2021/07/05 06:07:31;;;;;;;0.82;0.55;;;13.60;99.90;;;;;;5109266;27;1274422;-79
2021/07/05 06:09:58;;;;;;;0.40;0.30;;;13.60;99.90;;;;;;5131199;28;20673;-79
2021/07/05 06:12:25;;;;;;;0.40;0.40;;;13.80;99.90;;;;;;5137107;28;20453;-78
2021/07/05 06:14:51;;;;;;;0.40;0.40;;;13.90;99.90;;;;;;5136118;28;20437;-76
2021/07/05 06:17:19;;;;;;;0.40;0.40;;;13.90;99.90;;;;;;5135478;28;20442;-80
2021/07/05 06:19:46;;;;;;;0.40;0.40;;;14.00;99.90;;;;;;5135373;28;20443;-79
2021/07/05 06:22:16;;;;;;;0.50;0.40;;;14.00;99.90;;;;;;5136581;28;20453;-79
2021/07/05 06:24:47;;;;;;;0.40;0.30;;;14.10;99.90;;;;;;5134548;28;20442;-79
2021/07/05 06:27:14;;;;;;;0.40;0.30;;;14.10;99.90;;;;;;5134851;28;20477;-78
2021/07/05 06:29:41;;;;;;;2.50;2.40;;;14.20;99.90;;;;;;5134781;28;20437;-79
2021/07/05 06:32:08;;;;;;;0.40;0.40;;;14.20;99.90;;;;;;5118238;28;20455;-78
2021/07/05 06:34:35;;;;;;;0.40;0.30;;;14.20;99.90;;;;;;5107687;28;20427;-78
2021/07/05 06:37:02;;;;;;;0.40;0.30;;;14.40;99.90;;;;;;5116035;28;20433;-79
2021/07/05 06:39:31;;;;;;;0.40;0.30;;;14.40;99.90;;;;;;5121256;28;20443;-79
2021/07/05 06:41:59;;;;;;;0.40;0.30;;;14.50;99.90;;;;;;5123333;28;20454;-78
2021/07/05 06:44:26;;;;;;;0.40;0.30;;;14.50;99.90;;;;;;5120633;28;20434;-79
2021/07/05 06:46:53;;;;;;;0.40;0.30;;;14.60;99.90;;;;;;5121575;28;20477;-78
2021/07/05 06:49:20;;;;;;;0.50;0.50;;;14.70;99.90;;;;;;5121028;28;20439;-79
2021/07/05 06:51:49;;;;;;;0.40;0.30;;;14.80;99.90;;;;;;5116611;28;20456;-79
2021/07/05 06:54:16;;;;;;;0.40;0.30;;;14.80;99.90;;;;;;5116987;28;20446;-78
2021/07/05 06:56:42;;;;;;;0.40;0.30;;;15.00;99.90;;;;;;5115728;28;21030;-80
2021/07/05 06:59:11;;;;;;;0.40;0.30;;;15.00;99.90;;;;;;5112673;28;20450;-79
2021/07/05 07:01:37;;;;;;;0.43;0.40;;;15.10;99.90;;;;;;5107816;28;20981;-79
2021/07/05 07:04:04;;;;;;;0.50;0.40;;;15.30;99.90;;;;;;5103013;28;20435;-77
2021/07/05 07:06:31;;;;;;;0.60;0.40;;;15.30;99.90;;;;;;5112170;28;20474;-79
2021/07/05 07:08:58;;;;;;;0.67;0.67;;;15.30;99.90;;;;;;5120157;28;20434;-79
2021/07/05 07:11:25;;;;;;;0.40;0.30;;;15.40;99.90;;;;;;5123886;28;20462;-78
2021/07/05 07:13:51;;;;;;;0.43;0.40;;;15.60;99.90;;;;;;5122773;28;20437;-79
2021/07/05 07:16:22;;;;;;;0.40;0.30;;;15.80;99.90;;;;;;5123354;28;20423;-80
2021/07/05 07:19:16;;;;;;;0.50;0.40;;;15.90;99.90;;;;;;5105070;28;20448;-79
2021/07/05 07:21:44;;;;;;;0.40;0.30;;;16.10;99.90;;;;;;5102997;28;20458;-80
2021/07/05 07:24:11;;;;;;;0.50;0.40;;;16.20;99.90;;;;;;5101957;28;20439;-80
2021/07/05 07:26:37;;;;;;;0.50;0.30;;;16.40;99.90;;;;;;5101690;28;20468;-80
2021/07/05 07:29:04;;;;;;;0.40;0.30;;;16.50;99.90;;;;;;5101150;28;20962;-80
2021/07/05 07:31:33;;;;;;;0.43;0.30;;;16.60;99.90;;;;;;5098031;28;20463;-79
2021/07/05 07:33:59;;;;;;;1.17;1.07;;;16.70;99.90;;;;;;5089423;28;20433;-75
2021/07/05 07:36:26;;;;;;;0.50;0.43;;;16.80;99.90;;;;;;5101414;28;20973;-78
2021/07/05 07:38:58;;;;;;;0.50;0.30;;;16.80;99.90;;;;;;5101384;28;20781;-79
2021/07/05 07:41:29;;;;;;;0.70;0.70;;;16.70;99.90;;;;;;5100847;28;20474;-79
2021/07/05 07:43:56;;;;;;;1.50;0.60;;;16.70;99.90;;;;;;5101384;28;20499;-79
2021/07/05 07:46:23;;;;;;;0.50;0.30;;;16.60;99.90;;;;;;5100457;28;20479;-79
2021/07/05 07:48:51;;;;;;;0.47;0.40;;;16.60;99.90;;;;;;5101413;28;20439;-79
2021/07/05 07:51:17;;;;;;;1.10;0.60;;;16.90;99.90;;;;;;5100330;28;20457;-79
2021/07/05 07:53:44;;;;;;;0.50;0.30;;;17.00;99.90;;;;;;5100848;28;20434;-79
2021/07/05 07:56:11;;;;;;;0.50;0.30;;;17.10;99.90;;;;;;5099757;28;20439;-77
2021/07/05 07:58:38;;;;;;;0.50;0.30;;;17.20;99.90;;;;;;5100767;28;20450;-79
2021/07/05 08:01:04;;;;;;;0.50;0.30;;;17.40;99.90;;;;;;5101468;28;20794;-79
2021/07/05 08:03:31;;;;;;;0.50;0.30;;;17.60;99.90;;;;;;5088261;28;20446;-79
2021/07/05 08:05:59;;;;;;;0.50;0.40;;;18.10;99.90;;;;;;5092953;28;20447;-78
2021/07/05 08:08:26;;;;;;;0.50;0.30;;;19.40;99.90;;;;;;5098658;28;20527;-79
2021/07/05 08:10:53;;;;;;;0.50;0.40;;;20.80;99.90;;;;;;5102208;28;20444;-80
2021/07/05 08:13:20;;;;;;;0.50;0.40;;;21.90;99.90;;;;;;5102036;28;20452;-81
2021/07/05 08:15:48;;;;;;;0.50;0.40;;;22.40;99.90;;;;;;5099546;28;20436;-79
2021/07/05 08:29:21;;;;;;;0.50;0.30;;;21.70;99.90;;;;;;5089428;27;20592;-77
2021/07/05 08:31:48;;;;;;;2.10;2.00;;;20.90;99.90;;;;;;5084498;28;20479;-78
2021/07/05 08:34:15;;;;;;;0.50;0.30;;;20.30;99.90;;;;;;5088209;28;20439;-77
2021/07/05 08:36:42;;;;;;;0.50;0.50;;;20.50;99.90;;;;;;5090253;28;21084;-78
2021/07/05 08:39:10;;;;;;;0.50;0.40;;;20.70;99.90;;;;;;5090289;28;20840;-77
2021/07/05 08:41:37;;;;;;;1.07;0.80;;;20.80;99.90;;;;;;5090692;28;20466;-78
2021/07/05 08:44:05;;;;;;;0.77;0.57;;;20.70;99.90;;;;;;5086610;28;20442;-78
2021/07/05 08:46:34;;;;;;;1.17;1.07;;;20.30;99.90;;;;;;5067780;28;20807;-78
2021/07/05 08:49:01;;;;;;;3.80;1.80;;;19.80;99.90;;;;;;5089319;28;20476;-78
2021/07/05 08:51:28;;;;;;;0.73;0.60;;;19.80;99.90;;;;;;5084737;28;20472;-78
2021/07/05 08:53:56;;;;;;;0.60;0.53;;;19.80;99.90;;;;;;5075067;28;20954;-78
2021/07/05 08:56:23;;;;;;;0.70;0.40;;;19.40;99.90;;;;;;5074751;28;20440;-78
2021/07/05 08:58:52;;;;;;;1.10;0.80;;;19.50;99.90;;;;;;5073563;28;20436;-79
2021/07/05 09:01:19;;;;;;;0.50;0.40;;;19.80;99.90;;;;;;5070493;28;20467;-76
2021/07/05 09:03:50;;;;;;;0.50;0.30;;;19.50;99.90;;;;;;5075512;28;20435;-77
2021/07/05 09:06:18;;;;;;;0.60;0.50;;;19.70;99.90;;;;;;5088701;28;20420;-78
2021/07/05 09:08:47;;;;;;;0.50;0.40;;;19.90;99.90;;;;;;5088424;28;20471;-77
2021/07/05 09:11:17;;;;;;;6.13;3.50;;;19.80;99.90;;;;;;5088282;28;20465;-77
2021/07/05 09:13:52;;;;;;;0.50;0.40;;;20.20;99.90;;;;;;5087782;28;20451;-77
2021/07/05 09:16:30;;;;;;;2.60;0.97;;;20.40;99.90;;;;;;5088866;28;20435;-77
2021/07/05 09:18:59;;;;;;;0.60;0.50;;;20.30;99.90;;;;;;5088553;28;20466;-75
2021/07/05 09:21:27;;;;;;;0.77;0.73;;;20.30;99.90;;;;;;5088103;28;20994;-78
2021/07/05 09:23:57;;;;;;;1.80;1.70;;;20.20;99.90;;;;;;5088540;28;20439;-76
2021/07/05 09:26:27;;;;;;;0.50;0.40;;;20.10;99.90;;;;;;5080664;28;20542;-75
2021/07/05 09:28:55;;;;;;;0.50;0.30;;;19.60;99.90;;;;;;5075222;28;20475;-78
2021/07/05 09:31:42;;;;;;;2.20;0.83;;;19.30;99.90;;;;;;5085581;28;20463;-77
2021/07/05 09:34:19;;;;;;;0.50;0.30;;;19.20;99.90;;;;;;5085810;28;20935;-76
2021/07/05 09:36:47;;;;;;;0.50;0.40;;;19.20;99.90;;;;;;5088110;28;20415;-79
2021/07/05 09:39:17;;;;;;;0.50;0.40;;;19.20;99.90;;;;;;5087205;28;20436;-78
2021/07/05 09:41:44;;;;;;;0.60;0.43;;;19.40;99.90;;;;;;5077460;28;20468;-77
2021/07/05 09:44:14;;;;;;;0.60;0.50;;;19.40;99.90;;;;;;5074674;28;20444;-76
2021/07/05 09:46:47;;;;;;;0.50;0.40;;;19.30;99.90;;;;;;5074719;28;20810;-77
2021/07/05 09:49:27;;;;;;;0.70;0.60;;;19.10;99.90;;;;;;5075359;28;20471;-77
2021/07/05 09:52:12;;;;;;;0.70;0.67;;;18.70;99.90;;;;;;5075439;28;20474;-77
2021/07/05 09:54:40;;;;;;;0.50;0.30;;;18.50;99.90;;;;;;5075690;28;20427;-77
2021/07/05 09:57:25;;;;;;;0.50;0.40;;;18.50;99.90;;;;;;5074868;28;20446;-77
2021/07/05 09:59:52;;;;;;;0.50;0.30;;;18.50;99.90;;;;;;5076132;28;20440;-78
2021/07/05 10:02:19;;;;;;;0.50;0.30;;;18.70;99.90;;;;;;5068610;28;20457;-78
2021/07/05 10:04:48;;;;;;;0.50;0.30;;;19.00;99.90;;;;;;5076055;28;20428;-78
2021/07/05 10:07:16;;;;;;;0.50;0.40;;;19.50;99.90;;;;;;5075957;28;20531;-78
2021/07/05 10:09:44;;;;;;;0.50;0.30;;;20.20;99.90;;;;;;5075849;28;20476;-78
2021/07/05 10:12:26;;;;;;;0.80;0.70;;;20.60;99.90;;;;;;5075344;28;20448;-78
2021/07/05 10:14:58;;;;;;;0.50;0.30;;;20.90;99.90;;;;;;5075988;28;20420;-77
2021/07/05 10:17:27;;;;;;;0.50;0.40;;;21.00;99.90;;;;;;5075285;28;20531;-79
2021/07/05 10:19:56;;;;;;;0.50;0.30;;;21.00;99.90;;;;;;5077665;28;20482;-78
2021/07/05 10:22:24;;;;;;;1.77;1.67;;;20.80;99.90;;;;;;5079700;28;20470;-80
2021/07/05 10:24:52;;;;;;;0.50;0.30;;;20.90;99.90;;;;;;5079825;28;20461;-79
2021/07/05 10:27:19;;;;;;;0.60;0.60;;;20.80;99.90;;;;;;5077354;28;20791;-78
2021/07/05 10:29:48;;;;;;;0.50;0.40;;;20.80;99.90;;;;;;5076451;28;20544;-78
2021/07/05 10:32:16;;;;;;;0.57;0.57;;;20.70;99.90;;;;;;5067616;28;20492;-77
2021/07/05 10:34:44;;;;;;;0.50;0.30;;;20.70;99.90;;;;;;5074135;28;20440;-78
2021/07/05 10:37:19;;;;;;;0.50;0.30;;;20.60;99.90;;;;;;5074297;28;20547;-79
2021/07/05 10:39:49;;;;;;;0.50;0.40;;;20.70;99.90;;;;;;5073298;28;20416;-78
2021/07/05 10:42:33;;;;;;;0.50;0.30;;;20.70;99.90;;;;;;5075513;28;20521;-77
2021/07/05 10:45:00;;;;;;;0.50;0.40;;;20.90;99.90;;;;;;5073870;28;20444;-78
2021/07/05 10:47:47;;;;;;;0.50;0.30;;;21.50;99.90;;;;;;5074320;28;20449;-80
2021/07/05 10:50:37;;;;;;;0.50;0.30;;;22.10;99.90;;;;;;5074832;28;20543;-76
2021/07/05 10:53:06;;;;;;;0.50;0.40;;;22.30;99.90;;;;;;5074536;28;20467;-77
2021/07/05 10:55:38;;;;;;;0.50;0.30;;;22.30;99.90;;;;;;5074741;28;20431;-79
2021/07/05 10:58:15;;;;;;;0.50;0.30;;;22.30;99.90;;;;;;5074888;28;20443;-79
2021/07/05 11:00:43;;;;;;;0.50;0.30;;;22.40;99.90;;;;;;5075262;28;20447;-80
2021/07/05 11:03:10;;;;;;;0.50;0.40;;;22.70;99.90;;;;;;5067332;28;20456;-79
2021/07/05 11:05:42;;;;;;;0.50;0.30;;;22.80;99.90;;;;;;5074364;28;20938;-79
2021/07/05 11:08:31;;;;;;;0.80;0.60;;;22.20;99.90;;;;;;5068202;28;20479;-77
2021/07/05 11:11:21;;;;;;;0.70;0.60;;;21.70;99.90;;;;;;5074298;28;20519;-77
2021/07/05 11:13:49;;;;;;;8.90;2.43;;;21.00;99.90;;;;;;5074098;28;20526;-80
2021/07/05 11:16:16;;;;;;;0.50;0.30;;;20.70;99.90;;;;;;5073846;28;20420;-79
2021/07/05 11:19:10;;;;;;;0.50;0.30;;;20.50;99.90;;;;;;5073823;28;20436;-79
2021/07/05 11:21:57;;;;;;;0.50;0.30;;;20.80;99.90;;;;;;5076985;28;20456;-80
2021/07/05 11:24:44;;;;;;;0.50;0.30;;;21.80;99.90;;;;;;5074003;28;20535;-80
2021/07/05 11:27:52;;;;;;;0.50;0.33;;;23.10;99.90;;;;;;5072779;28;20440;-79
2021/07/05 11:30:21;;;;;;;0.50;0.40;;;23.60;99.90;;;;;;5074185;28;20435;-79
2021/07/05 11:32:51;;;;;;;0.50;0.40;;;23.80;99.90;;;;;;5067318;28;20452;-78
2021/07/05 11:35:36;;;;;;;27.10;2.30;;;23.60;99.90;;;;;;5074060;28;20471;-79
2021/07/05 11:38:05;;;;;;;0.50;0.40;;;23.40;99.90;;;;;;5074275;28;20779;-78
2021/07/05 11:40:47;;;;;;;0.50;0.30;;;23.90;99.90;;;;;;5074735;28;20444;-79
2021/07/05 11:43:16;;;;;;;0.50;0.40;;;24.40;99.90;;;;;;5073794;28;20464;-77
2021/07/05 11:45:45;;;;;;;0.50;0.40;;;24.80;99.90;;;;;;5074596;28;20870;-79
2021/07/05 11:48:50;;;;;;;1.07;0.97;;;24.70;99.90;;;;;;5073220;28;21127;-78
2021/07/05 11:51:18;;;;;;;0.50;0.30;;;24.40;99.90;;;;;;5073963;28;20456;-77
2021/07/05 11:53:49;;;;;;;0.50;0.30;;;23.70;99.90;;;;;;5074590;28;20442;-79
2021/07/05 11:56:28;;;;;;;0.50;0.40;;;23.50;99.90;;;;;;5073754;28;20490;-79
2021/07/05 11:58:54;;;;;;;0.50;0.30;;;23.30;99.90;;;;;;5074109;28;20833;-79
2021/07/05 12:01:21;;;;;;;0.50;0.30;;;23.30;99.90;;;;;;5073386;28;20456;-78
2021/07/05 12:03:52;;;;;;;0.60;0.40;;;23.30;99.90;;;;;;5072457;28;20941;-78
2021/07/05 12:06:19;;;;;;;0.50;0.40;;;22.80;99.90;;;;;;5073288;28;20455;-78
2021/07/05 12:08:53;;;;;;;0.50;0.30;;;22.20;99.90;;;;;;5067227;28;20480;-77
2021/07/05 12:11:36;;;;;;;0.50;0.40;;;22.40;99.90;;;;;;5073308;28;20490;-80
2021/07/05 12:14:12;;;;;;;0.50;0.40;;;22.80;99.90;;;;;;5073466;28;20894;-77
2021/07/05 12:16:41;;;;;;;0.50;0.30;;;23.00;99.90;;;;;;5072973;28;20969;-79
2021/07/05 12:19:09;;;;;;;0.50;0.40;;;23.00;99.90;;;;;;5073728;28;20443;-79
2021/07/05 12:21:38;;;;;;;0.50;0.30;;;23.10;99.90;;;;;;5073241;28;20460;-79
2021/07/05 12:24:15;;;;;;;0.53;0.47;;;23.30;99.90;;;;;;5074269;28;20505;-78
2021/07/05 12:26:45;;;;;;;0.50;0.40;;;23.40;99.90;;;;;;5075266;28;20449;-78
2021/07/05 12:29:16;;;;;;;0.90;0.90;;;23.20;99.90;;;;;;5073725;28;20507;-79
2021/07/05 12:32:12;;;;;;;0.50;0.30;;;23.00;99.90;;;;;;5072666;28;20973;-78
2021/07/05 12:34:57;;;;;;;0.50;0.33;;;22.60;99.90;;;;;;5065865;28;20961;-79
2021/07/05 12:37:31;;;;;;;7.97;2.00;;;22.10;99.90;;;;;;5072523;28;20433;-78
2021/07/05 12:40:02;;;;;;;0.50;0.30;;;21.90;99.90;;;;;;5072655;28;20777;-77
2021/07/05 12:42:33;;;;;;;0.60;0.50;;;21.80;99.90;;;;;;5072608;28;20461;-79
2021/07/05 12:45:01;;;;;;;0.50;0.40;;;21.70;99.90;;;;;;5072709;28;20882;-79
2021/07/05 12:47:29;;;;;;;0.50;0.30;;;21.90;99.90;;;;;;5072703;28;20960;-80
2021/07/05 12:49:58;;;;;;;0.50;0.40;;;22.00;99.90;;;;;;5073811;28;21003;-79
2021/07/05 12:52:26;;;;;;;0.50;0.40;;;22.30;99.90;;;;;;5073834;28;20464;-79
2021/07/05 12:55:15;;;;;;;0.83;0.83;;;22.50;99.90;;;;;;5073245;28;20436;-79
2021/07/05 12:57:55;;;;;;;0.50;0.40;;;22.50;99.90;;;;;;5072214;28;20462;-79
2021/07/05 13:00:24;;;;;;;0.50;0.30;;;22.10;99.90;;;;;;5073250;28;20443;-78
2021/07/05 13:02:51;;;;;;;0.50;0.30;;;22.10;99.90;;;;;;5065184;28;20830;-78
2021/07/05 13:05:21;;;;;;;0.50;0.30;;;22.00;99.90;;;;;;5072665;28;20455;-78
2021/07/05 13:07:56;;;;;;;0.50;0.50;;;21.80;99.90;;;;;;5066964;28;20521;-78
2021/07/05 13:10:31;;;;;;;0.50;0.40;;;21.90;99.90;;;;;;5073006;28;20478;-78
2021/07/05 13:13:05;;;;;;;0.50;0.30;;;22.00;99.90;;;;;;5073429;28;20455;-79
2021/07/05 13:15:34;;;;;;;0.70;0.50;;;22.10;99.90;;;;;;5076520;28;20586;-79
2021/07/05 13:18:19;;;;;;;0.50;0.30;;;22.40;99.90;;;;;;5076242;28;21058;-78
2021/07/05 13:20:49;;;;;;;0.63;0.57;;;22.10;99.90;;;;;;5076199;28;20929;-79
2021/07/05 13:23:16;;;;;;;0.50;0.30;;;21.80;99.90;;;;;;5075831;28;20463;-79